Time;durP1;ratioP1;P1;durP2;ratioP2;P2;SDS_P1;SDS_P2;PMS_P1;PMS_P2;Temp;Humidity;BMP_temperature;BMP_pressure;BME280_temperature;BME280_humidity;BME280_pressure;Samples;Min_cycle;Max_cycle;Signal;HPM_P1;HPM_P2
2023/04/01 00:01:18;;;;;;;1.52;1.00;;;10.20;99.90;;;;;;4973467;28;20613;-43
2023/04/01 00:03:44;;;;;;;1.30;0.32;;;10.20;99.90;;;;;;4971559;28;20219;-44
2023/04/01 00:06:13;;;;;;;1.60;0.35;;;10.20;99.90;;;;;;4970872;28;20670;-43
2023/04/01 00:08:39;;;;;;;1.00;0.55;;;10.20;99.90;;;;;;4970737;28;20244;-43
2023/04/01 00:11:05;;;;;;;1.95;1.00;;;10.20;99.90;;;;;;4970635;28;20240;-44
2023/04/01 00:13:30;;;;;;;0.73;0.68;;;;;;;;;;4970705;28;20177;-44
2023/04/01 00:15:56;;;;;;;1.52;0.65;;;10.10;99.90;;;;;;4970744;28;20209;-43
2023/04/01 00:18:23;;;;;;;0.52;0.43;;;10.10;99.90;;;;;;4970673;28;20183;-44
2023/04/01 00:20:51;;;;;;;1.63;0.60;;;10.20;99.90;;;;;;4955361;28;20221;-43
2023/04/01 00:23:17;;;;;;;1.05;0.55;;;;;;;;;;4952531;28;20658;-44
2023/04/01 00:25:45;;;;;;;2.72;0.77;;;10.20;99.90;;;;;;4951328;28;20657;-45
2023/04/01 00:28:11;;;;;;;1.63;0.65;;;10.20;99.90;;;;;;4950751;28;20660;-44
2023/04/01 00:30:37;;;;;;;3.03;0.90;;;10.20;99.90;;;;;;4951242;28;20244;-43
2023/04/01 00:33:03;;;;;;;1.08;0.70;;;10.10;99.90;;;;;;4951016;28;20258;-44
2023/04/01 00:35:29;;;;;;;0.28;0.28;;;10.10;99.90;;;;;;4951573;28;20303;-43
2023/04/01 00:37:55;;;;;;;6.00;2.13;;;10.10;99.90;;;;;;4951376;28;20178;-43
2023/04/01 00:40:30;;;;;;;1.95;0.90;;;10.20;99.90;;;;;;4977156;28;20184;-43
2023/04/01 00:42:56;;;;;;;3.35;1.33;;;10.20;99.90;;;;;;4989669;28;20176;-44
2023/04/01 00:45:29;;;;;;;2.17;0.95;;;10.20;99.90;;;;;;4989796;28;20529;-43
2023/04/01 00:47:58;;;;;;;1.20;0.73;;;10.20;99.90;;;;;;4989939;28;20172;-43
2023/04/01 00:50:26;;;;;;;5.97;1.05;;;10.20;99.90;;;;;;4989456;28;20203;-43
2023/04/01 00:52:52;;;;;;;3.15;1.08;;;10.20;99.90;;;;;;4989630;28;20192;-44
2023/04/01 00:55:21;;;;;;;2.58;1.10;;;10.10;99.90;;;;;;4989463;28;20218;-43
2023/04/01 00:57:49;;;;;;;2.75;1.40;;;10.00;99.90;;;;;;4989881;28;20173;-44
2023/04/01 01:00:17;;;;;;;0.32;0.30;;;10.10;99.90;;;;;;4989832;28;20511;-43
2023/04/01 01:02:45;;;;;;;2.30;0.95;;;10.10;99.90;;;;;;4989867;28;20176;-45
2023/04/01 01:05:15;;;;;;;1.85;0.80;;;10.10;99.90;;;;;;4989463;28;20168;-44
2023/04/01 01:07:48;;;;;;;2.60;1.02;;;10.10;99.90;;;;;;4989286;28;20311;-44
2023/04/01 01:10:33;;;;;;;2.25;0.60;;;10.10;99.90;;;;;;4976272;28;20254;-44
2023/04/01 01:13:35;;;;;;;4.00;0.80;;;10.10;99.90;;;;;;4969923;28;20192;-43
2023/04/01 01:16:10;;;;;;;4.10;1.00;;;10.10;99.90;;;;;;4969967;28;20188;-43
2023/04/01 01:18:42;;;;;;;0.60;0.50;;;10.10;99.90;;;;;;4981256;28;20180;-44
2023/04/01 01:21:46;;;;;;;1.15;0.70;;;10.10;99.90;;;;;;4989128;28;20180;-44
2023/04/01 01:24:39;;;;;;;1.63;0.82;;;10.10;99.90;;;;;;4989564;28;20164;-46
2023/04/01 01:27:19;;;;;;;1.95;0.70;;;10.00;99.90;;;;;;4989336;28;20222;-46
2023/04/01 01:30:04;;;;;;;1.67;0.60;;;10.10;99.90;;;;;;4989377;28;20546;-46
2023/04/01 01:32:48;;;;;;;1.92;0.50;;;10.00;99.90;;;;;;4989101;28;20176;-51
2023/04/01 01:35:42;;;;;;;2.95;0.68;;;10.10;99.90;;;;;;4989311;28;20169;-46
2023/04/01 01:38:15;;;;;;;1.45;0.63;;;10.10;99.90;;;;;;4988992;28;20189;-47
2023/04/01 01:40:44;;;;;;;4.00;0.70;;;10.00;99.90;;;;;;4973449;28;20645;-49
2023/04/01 01:43:14;;;;;;;1.88;0.45;;;10.00;99.90;;;;;;4969553;28;20173;-50
2023/04/01 01:45:47;;;;;;;1.88;0.40;;;10.00;99.90;;;;;;4969432;28;20172;-50
2023/04/01 01:48:15;;;;;;;0.98;0.50;;;10.00;99.90;;;;;;4977492;28;20654;-50
2023/04/01 01:50:42;;;;;;;0.65;0.65;;;9.90;99.90;;;;;;4988768;28;20299;-51
2023/04/01 01:53:11;;;;;;;1.15;0.57;;;10.00;99.90;;;;;;4988767;28;20227;-46
2023/04/01 01:55:42;;;;;;;2.78;0.73;;;9.90;99.90;;;;;;4987129;28;20179;-51
2023/04/01 01:58:25;;;;;;;1.00;0.47;;;9.90;99.90;;;;;;4987605;28;20176;-49
2023/04/01 02:00:55;;;;;;;0.32;0.32;;;9.90;99.90;;;;;;4987482;28;20169;-50
2023/04/01 02:03:24;;;;;;;3.00;0.55;;;9.90;99.90;;;;;;4988659;28;20184;-46
2023/04/01 02:05:53;;;;;;;0.30;0.30;;;9.90;99.90;;;;;;4988730;28;20173;-45
2023/04/01 02:08:26;;;;;;;0.65;0.43;;;9.80;99.90;;;;;;4988469;28;20220;-45
2023/04/01 02:11:06;;;;;;;0.80;0.50;;;9.80;99.90;;;;;;4971929;28;20630;-46
2023/04/01 02:13:44;;;;;;;1.00;0.38;;;9.80;99.90;;;;;;4969190;28;20633;-45
2023/04/01 02:16:24;;;;;;;2.08;0.73;;;9.80;99.90;;;;;;4969438;28;20176;-49
2023/04/01 02:18:53;;;;;;;0.75;0.45;;;9.90;99.90;;;;;;4969934;28;20174;-45
2023/04/01 02:21:21;;;;;;;2.15;0.50;;;9.80;99.90;;;;;;4969766;28;20201;-45
2023/04/01 02:23:48;;;;;;;0.77;0.47;;;9.80;99.90;;;;;;4969585;28;20177;-45
2023/04/01 02:26:15;;;;;;;0.65;0.38;;;9.90;99.90;;;;;;4969890;28;20170;-45
2023/04/01 02:28:42;;;;;;;0.32;0.20;;;9.80;99.90;;;;;;4969558;28;20311;-45
2023/04/01 02:31:10;;;;;;;0.50;0.43;;;9.90;99.90;;;;;;4969430;28;20209;-45
2023/04/01 02:33:38;;;;;;;1.27;0.47;;;9.90;99.90;;;;;;4969719;28;20892;-46
2023/04/01 02:36:04;;;;;;;0.45;0.30;;;9.80;99.90;;;;;;4969407;28;20197;-46
2023/04/01 02:38:30;;;;;;;0.57;0.45;;;9.90;99.90;;;;;;4969612;28;20256;-45
2023/04/01 02:41:00;;;;;;;0.25;0.25;;;9.90;99.90;;;;;;4988172;28;20619;-46
2023/04/01 02:43:26;;;;;;;1.23;0.32;;;9.90;99.90;;;;;;4988732;28;20172;-46
2023/04/01 02:45:51;;;;;;;0.47;0.47;;;9.90;99.90;;;;;;4988986;28;20169;-46
2023/04/01 02:48:17;;;;;;;0.43;0.40;;;9.90;99.90;;;;;;4992146;28;20256;-45
2023/04/01 02:50:42;;;;;;;0.70;0.35;;;10.00;99.90;;;;;;4992252;28;20577;-52
2023/04/01 02:53:08;;;;;;;0.38;0.35;;;9.90;99.90;;;;;;4991971;28;20636;-45
2023/04/01 02:55:34;;;;;;;0.40;0.40;;;9.90;99.90;;;;;;4990708;28;20735;-45
2023/04/01 02:57:59;;;;;;;3.63;0.90;;;9.90;99.90;;;;;;4992158;28;20672;-46
2023/04/01 03:00:26;;;;;;;3.13;0.80;;;9.90;99.90;;;;;;4991806;28;20663;-46
2023/04/01 03:02:52;;;;;;;0.43;0.25;;;9.90;99.90;;;;;;4990606;28;20266;-47
2023/04/01 03:05:17;;;;;;;0.52;0.52;;;9.90;99.90;;;;;;4991717;28;20169;-51
2023/04/01 03:07:43;;;;;;;0.15;0.15;;;9.90;99.90;;;;;;4992060;28;20235;-52
2023/04/01 03:10:09;;;;;;;0.52;0.40;;;9.90;99.90;;;;;;4978575;28;20322;-52
2023/04/01 03:12:35;;;;;;;0.50;0.50;;;9.90;99.90;;;;;;4971023;28;20178;-51
2023/04/01 03:15:01;;;;;;;1.65;0.47;;;9.90;99.90;;;;;;4972484;28;20165;-51
2023/04/01 03:17:26;;;;;;;1.02;0.38;;;9.80;99.90;;;;;;4972190;28;20170;-52
2023/04/01 03:19:52;;;;;;;2.80;0.50;;;9.90;99.90;;;;;;4972123;28;20181;-50
2023/04/01 03:22:20;;;;;;;0.80;0.40;;;9.90;99.90;;;;;;4972112;28;20165;-49
2023/04/01 03:24:47;;;;;;;0.30;0.30;;;;;;;;;;4972361;28;20178;-43
2023/04/01 03:27:12;;;;;;;2.38;0.70;;;9.90;99.90;;;;;;4972442;28;20257;-50
2023/04/01 03:29:38;;;;;;;2.60;0.35;;;9.90;99.90;;;;;;4970519;28;20262;-50
2023/04/01 03:32:04;;;;;;;2.35;0.85;;;9.90;99.90;;;;;;4971420;28;20188;-50
2023/04/01 03:34:30;;;;;;;4.65;0.95;;;9.80;99.90;;;;;;4971400;28;20166;-52
2023/04/01 03:36:55;;;;;;;1.40;0.57;;;9.80;99.90;;;;;;4971275;28;20174;-47
2023/04/01 03:39:21;;;;;;;0.50;0.32;;;9.70;99.90;;;;;;4971373;28;20197;-48
2023/04/01 03:41:47;;;;;;;1.65;0.30;;;;;;;;;;4971452;28;20166;-46
2023/04/01 03:44:13;;;;;;;0.47;0.25;;;9.60;99.90;;;;;;4971610;28;20169;-49
2023/04/01 03:46:39;;;;;;;0.43;0.43;;;9.60;99.90;;;;;;4971530;28;20306;-50
2023/04/01 03:49:12;;;;;;;0.13;0.10;;;9.60;99.90;;;;;;4971399;28;20652;-49
2023/04/01 03:51:42;;;;;;;0.55;0.52;;;9.70;99.90;;;;;;4971008;28;20569;-51
2023/04/01 03:54:09;;;;;;;1.27;0.52;;;9.70;99.90;;;;;;4971011;28;20201;-50
2023/04/01 03:56:35;;;;;;;2.05;0.55;;;9.70;99.90;;;;;;4970494;28;20178;-51
2023/04/01 03:59:06;;;;;;;1.48;0.50;;;9.60;99.90;;;;;;4971035;28;20652;-50
2023/04/01 04:01:32;;;;;;;0.60;0.47;;;9.70;99.90;;;;;;4987055;28;20183;-51
2023/04/01 04:03:59;;;;;;;0.38;0.38;;;;;;;;;;4990059;28;20181;-50
2023/04/01 04:06:25;;;;;;;0.50;0.32;;;9.60;99.90;;;;;;4990503;28;20172;-51
2023/04/01 04:08:51;;;;;;;0.80;0.45;;;;;;;;;;4990023;28;20231;-51
2023/04/01 04:11:17;;;;;;;2.60;0.55;;;;;;;;;;4990549;28;20213;-47
2023/04/01 04:13:43;;;;;;;0.35;0.35;;;;;;;;;;4990559;28;20682;-47
2023/04/01 04:16:10;;;;;;;0.30;0.30;;;9.60;99.90;;;;;;4990339;28;20177;-51
2023/04/01 04:18:36;;;;;;;1.33;0.55;;;9.70;99.90;;;;;;4989934;28;20239;-49
2023/04/01 04:21:03;;;;;;;0.50;0.47;;;9.80;99.90;;;;;;4990091;28;20565;-48
2023/04/01 04:23:30;;;;;;;0.85;0.40;;;9.70;99.90;;;;;;4989670;28;20165;-48
2023/04/01 04:26:05;;;;;;;0.80;0.45;;;9.70;99.90;;;;;;4990257;28;20271;-49
2023/04/01 04:28:31;;;;;;;0.85;0.50;;;9.80;99.90;;;;;;4989622;28;20195;-45
2023/04/01 04:30:57;;;;;;;0.52;0.38;;;9.70;99.90;;;;;;4976992;28;20240;-50
2023/04/01 04:33:23;;;;;;;1.25;0.50;;;9.70;99.90;;;;;;4970344;28;20653;-49
2023/04/01 04:35:49;;;;;;;0.43;0.22;;;;;;;;;;4970269;28;20169;-51
2023/04/01 04:38:15;;;;;;;1.08;0.17;;;9.70;99.90;;;;;;4970735;28;20204;-46
2023/04/01 04:40:42;;;;;;;0.93;0.20;;;9.60;99.90;;;;;;4970304;28;20170;-47
2023/04/01 04:43:10;;;;;;;0.60;0.30;;;9.70;99.90;;;;;;4970149;28;20553;-51
2023/04/01 04:45:36;;;;;;;0.30;0.30;;;9.60;99.90;;;;;;4970323;28;20290;-50
2023/04/01 04:48:02;;;;;;;0.15;0.15;;;9.70;99.90;;;;;;4970315;28;20610;-49
2023/04/01 04:50:27;;;;;;;1.25;0.30;;;9.70;99.90;;;;;;4969846;28;20215;-47
2023/04/01 04:52:53;;;;;;;0.20;0.20;;;9.70;99.90;;;;;;4970097;28;20166;-49
2023/04/01 04:55:18;;;;;;;0.20;0.20;;;9.70;99.90;;;;;;4968803;28;20185;-46
2023/04/01 04:57:44;;;;;;;1.20;0.40;;;9.70;99.90;;;;;;4970556;28;20244;-50
2023/04/01 05:00:11;;;;;;;0.55;0.30;;;9.70;99.90;;;;;;4975788;28;20536;-49
2023/04/01 05:02:36;;;;;;;0.00;0.00;;;9.70;99.90;;;;;;4989219;28;20181;-50
2023/04/01 05:05:02;;;;;;;0.20;0.20;;;9.70;99.90;;;;;;4989232;28;20177;-49
2023/04/01 05:07:28;;;;;;;0.55;0.55;;;9.70;99.90;;;;;;4988766;28;20216;-47
2023/04/01 05:09:53;;;;;;;0.55;0.30;;;9.70;99.90;;;;;;4988633;28;20561;-50
2023/04/01 05:12:19;;;;;;;3.08;0.90;;;9.70;99.90;;;;;;4989383;28;20212;-48
2023/04/01 05:14:45;;;;;;;0.50;0.50;;;;;;;;;;4989659;28;20161;-50
2023/04/01 05:17:12;;;;;;;1.08;0.38;;;9.70;99.90;;;;;;4989271;28;20201;-48
2023/04/01 05:19:38;;;;;;;2.03;1.00;;;;;;;;;;4988779;28;20230;-48
2023/04/01 05:22:04;;;;;;;0.80;0.80;;;9.70;99.90;;;;;;4969487;28;20522;-49
2023/04/01 05:24:30;;;;;;;0.90;0.90;;;;;;;;;;4969615;28;20165;-49
2023/04/01 05:26:57;;;;;;;1.88;1.00;;;9.70;99.90;;;;;;4969428;28;20180;-47
2023/04/01 05:29:23;;;;;;;1.38;0.52;;;9.70;99.90;;;;;;4969922;28;20188;-46
2023/04/01 05:31:48;;;;;;;1.02;0.88;;;9.70;99.90;;;;;;4969255;28;20205;-45
2023/04/01 05:34:14;;;;;;;1.45;0.73;;;9.70;99.90;;;;;;4969806;28;20621;-45
2023/04/01 05:36:41;;;;;;;0.77;0.77;;;;;;;;;;4969281;28;20181;-50
2023/04/01 05:39:07;;;;;;;0.80;0.65;;;9.70;99.90;;;;;;4950466;28;20174;-49
2023/04/01 05:41:35;;;;;;;1.40;0.70;;;9.70;99.90;;;;;;4950190;28;20181;-46
2023/04/01 05:44:01;;;;;;;1.05;0.82;;;9.70;99.90;;;;;;4950167;28;20174;-50
2023/04/01 05:46:27;;;;;;;0.75;0.75;;;9.70;99.90;;;;;;4972605;28;20184;-46
2023/04/01 05:48:52;;;;;;;0.80;0.80;;;9.70;99.90;;;;;;4988879;28;20187;-45
2023/04/01 05:51:18;;;;;;;1.27;0.75;;;9.70;99.90;;;;;;4988652;28;20291;-47
2023/04/01 05:53:44;;;;;;;0.82;0.77;;;;;;;;;;4989122;28;20165;-47
2023/04/01 05:56:10;;;;;;;0.82;0.68;;;9.70;99.90;;;;;;4988375;28;20161;-46
2023/04/01 05:58:36;;;;;;;0.60;0.60;;;9.70;99.90;;;;;;4972399;28;20261;-45
2023/04/01 06:01:07;;;;;;;1.88;0.90;;;9.70;99.90;;;;;;4969266;28;20204;-45
2023/04/01 06:03:33;;;;;;;1.77;0.77;;;9.70;99.90;;;;;;4969195;28;20169;-45
2023/04/01 06:06:00;;;;;;;0.77;0.77;;;;;;;;;;4969240;28;20180;-46
2023/04/01 06:08:27;;;;;;;0.65;0.65;;;9.80;99.90;;;;;;4969054;28;20220;-45
2023/04/01 06:10:53;;;;;;;1.00;0.80;;;;;;;;;;4968971;28;20728;-45
2023/04/01 06:13:18;;;;;;;1.40;0.80;;;9.80;99.90;;;;;;4967929;28;20265;-45
2023/04/01 06:16:15;;;;;;;0.40;0.40;;;9.90;99.90;;;;;;4969568;28;20170;-45
2023/04/01 06:19:03;;;;;;;0.60;0.60;;;9.80;99.90;;;;;;4968007;28;20223;-46
2023/04/01 06:21:49;;;;;;;0.77;0.77;;;9.80;99.90;;;;;;4989012;28;20204;-46
2023/04/01 06:24:39;;;;;;;0.70;0.70;;;9.90;99.90;;;;;;4992141;28;20189;-46
2023/04/01 06:27:27;;;;;;;0.82;0.82;;;9.90;99.90;;;;;;4991399;28;20180;-46
2023/04/01 06:30:30;;;;;;;0.45;0.45;;;9.90;99.90;;;;;;4991103;28;20633;-48
2023/04/01 06:33:20;;;;;;;1.10;1.00;;;9.90;99.90;;;;;;4991665;28;20199;-46
2023/04/01 06:36:00;;;;;;;1.63;1.05;;;10.00;99.90;;;;;;4991820;28;20161;-49
2023/04/01 06:38:34;;;;;;;0.85;0.80;;;10.00;99.90;;;;;;4991019;28;20248;-48
2023/04/01 06:41:25;;;;;;;0.93;0.90;;;10.00;99.90;;;;;;4991730;28;20168;-51
2023/04/01 06:44:13;;;;;;;1.13;0.93;;;10.00;99.90;;;;;;5021771;28;20574;-51
2023/04/01 06:47:12;;;;;;;1.55;1.05;;;10.00;99.90;;;;;;4991458;28;20685;-46
2023/04/01 06:49:52;;;;;;;2.90;1.48;;;10.00;99.90;;;;;;5017799;28;20263;-46
2023/04/01 06:52:36;;;;;;;1.80;1.33;;;10.00;99.90;;;;;;4971925;28;20184;-46
2023/04/01 06:55:40;;;;;;;1.98;1.33;;;10.00;99.90;;;;;;4971898;28;20223;-48
2023/04/01 06:58:29;;;;;;;1.30;1.20;;;9.90;99.90;;;;;;4974715;28;20207;-46
2023/04/01 07:00:59;;;;;;;1.85;1.17;;;9.90;99.90;;;;;;4971970;28;20174;-47
2023/04/01 07:03:33;;;;;;;2.38;1.45;;;10.00;99.90;;;;;;4971899;28;20754;-47
2023/04/01 07:06:05;;;;;;;1.35;1.23;;;10.00;99.90;;;;;;4981885;28;20176;-47
2023/04/01 07:08:36;;;;;;;2.17;1.38;;;10.00;99.90;;;;;;4990672;28;20220;-47
2023/04/01 07:11:05;;;;;;;2.38;1.65;;;10.00;99.90;;;;;;4990834;28;20296;-47
2023/04/01 07:13:47;;;;;;;1.05;0.98;;;10.00;99.90;;;;;;4991015;28;20259;-45
2023/04/01 07:16:43;;;;;;;1.77;1.20;;;10.00;99.90;;;;;;4991415;28;20181;-45
2023/04/01 07:19:17;;;;;;;3.92;1.33;;;10.00;99.90;;;;;;4991038;28;20450;-45
2023/04/01 07:21:52;;;;;;;3.45;1.50;;;10.00;99.90;;;;;;4988187;28;20228;-44
2023/04/01 07:24:27;;;;;;;1.77;1.30;;;10.00;99.90;;;;;;4991019;28;20571;-45
2023/04/01 07:26:55;;;;;;;1.38;1.15;;;10.00;99.90;;;;;;4989801;28;20298;-44
2023/04/01 07:29:22;;;;;;;3.72;1.70;;;10.00;99.90;;;;;;4990907;28;20177;-45
2023/04/01 07:32:46;;;;;;;2.83;1.38;;;10.00;99.90;;;;;;4989891;28;20295;-45
2023/04/01 07:35:33;;;;;;;1.35;1.25;;;10.00;99.90;;;;;;4938909;28;20191;-45
2023/04/01 07:38:19;;;;;;;1.58;1.48;;;10.10;99.90;;;;;;4990814;28;20164;-45
2023/04/01 07:41:13;;;;;;;3.50;1.52;;;10.00;99.90;;;;;;4990855;28;20574;-45
2023/04/01 07:44:01;;;;;;;3.17;1.30;;;10.10;99.90;;;;;;4990491;28;20173;-46
2023/04/01 07:46:48;;;;;;;1.40;1.30;;;10.00;99.90;;;;;;4990509;28;20526;-45
2023/04/01 07:49:37;;;;;;;2.55;1.25;;;10.00;99.90;;;;;;4990675;28;20173;-46
2023/04/01 07:52:14;;;;;;;1.48;1.17;;;10.10;99.90;;;;;;4951987;28;20190;-48
2023/04/01 07:54:59;;;;;;;1.20;0.68;;;10.00;99.90;;;;;;4951749;28;20162;-48
2023/04/01 07:57:40;;;;;;;1.20;1.08;;;10.00;99.90;;;;;;4951666;28;20167;-50
2023/04/01 08:00:18;;;;;;;0.85;0.85;;;10.00;99.90;;;;;;4952095;28;20170;-50
2023/04/01 08:02:58;;;;;;;1.10;1.00;;;10.00;99.90;;;;;;4971112;28;20264;-50
2023/04/01 08:05:33;;;;;;;0.93;0.93;;;10.10;99.90;;;;;;4970922;28;20189;-51
2023/04/01 08:08:28;;;;;;;2.08;1.30;;;10.10;99.90;;;;;;4970466;28;20215;-49
2023/04/01 08:11:27;;;;;;;1.60;1.05;;;10.20;99.90;;;;;;4970451;28;20205;-47
2023/04/01 08:14:11;;;;;;;1.42;1.10;;;10.20;99.90;;;;;;4970670;28;20178;-47
2023/04/01 08:16:51;;;;;;;1.38;0.90;;;10.10;99.90;;;;;;4970523;28;20170;-47
2023/04/01 08:19:52;;;;;;;1.02;0.98;;;10.20;99.90;;;;;;4971316;28;20169;-48
2023/04/01 08:22:40;;;;;;;1.23;1.00;;;10.30;99.90;;;;;;4992161;28;20202;-47
2023/04/01 08:25:10;;;;;;;1.23;0.93;;;10.40;99.90;;;;;;4989993;28;20222;-46
2023/04/01 08:27:41;;;;;;;1.02;0.88;;;10.50;99.90;;;;;;4989428;28;20649;-46
2023/04/01 08:30:25;;;;;;;1.58;0.90;;;10.40;99.90;;;;;;4951261;28;20590;-47
2023/04/01 08:32:58;;;;;;;1.10;0.68;;;10.40;99.90;;;;;;4951358;28;20208;-46
2023/04/01 08:35:36;;;;;;;1.10;0.80;;;10.50;99.90;;;;;;4950824;28;20162;-47
2023/04/01 08:38:11;;;;;;;1.05;1.00;;;10.50;99.90;;;;;;4950947;28;20177;-47
2023/04/01 08:40:59;;;;;;;1.20;1.10;;;10.50;99.90;;;;;;4950905;28;20173;-46
2023/04/01 08:43:52;;;;;;;0.95;0.90;;;10.50;99.90;;;;;;4951051;28;20200;-46
2023/04/01 08:46:40;;;;;;;0.77;0.77;;;10.50;99.90;;;;;;4951193;28;20236;-46
2023/04/01 08:49:23;;;;;;;1.00;1.00;;;10.60;99.90;;;;;;4950835;28;20180;-46
2023/04/01 08:52:22;;;;;;;0.95;0.80;;;10.50;99.90;;;;;;4956172;28;20202;-46
2023/04/01 08:55:15;;;;;;;0.40;0.40;;;10.40;99.90;;;;;;4970176;28;20166;-47
2023/04/01 08:58:00;;;;;;;0.85;0.85;;;10.40;99.90;;;;;;4970670;28;20269;-46
2023/04/01 09:00:53;;;;;;;0.80;0.80;;;10.40;99.90;;;;;;4970148;28;20200;-46
2023/04/01 09:03:43;;;;;;;0.68;0.68;;;10.40;99.90;;;;;;4970044;28;20564;-46
2023/04/01 09:06:36;;;;;;;1.02;0.77;;;10.50;99.90;;;;;;4970068;28;20703;-46
2023/04/01 09:09:20;;;;;;;0.90;0.70;;;10.60;99.90;;;;;;4969846;28;20599;-46
2023/04/01 09:12:26;;;;;;;1.67;1.10;;;10.70;99.90;;;;;;4969411;28;20209;-45
2023/04/01 09:15:20;;;;;;;3.13;1.20;;;10.70;99.90;;;;;;4970157;28;20303;-47
2023/04/01 09:18:22;;;;;;;1.10;1.00;;;10.70;99.90;;;;;;4969927;28;20231;-45
2023/04/01 09:21:11;;;;;;;0.80;0.80;;;10.60;99.90;;;;;;4984585;28;20173;-45
2023/04/01 09:23:43;;;;;;;0.73;0.73;;;10.60;99.90;;;;;;4956324;28;20224;-46
2023/04/01 09:26:26;;;;;;;1.00;0.90;;;10.60;99.90;;;;;;4969537;28;20234;-46
2023/04/01 09:29:29;;;;;;;1.75;1.27;;;10.60;99.90;;;;;;4969516;28;20208;-45
2023/04/01 09:32:27;;;;;;;1.20;1.08;;;10.50;99.90;;;;;;4969537;28;20240;-46
2023/04/01 09:35:31;;;;;;;0.85;0.85;;;10.60;99.90;;;;;;4969351;28;20165;-46
2023/04/01 09:37:57;;;;;;;1.33;1.15;;;;;;;;;;4969576;28;20169;-46
2023/04/01 09:40:41;;;;;;;1.40;1.30;;;10.70;99.90;;;;;;4969443;28;20169;-46
2023/04/01 09:43:25;;;;;;;1.60;1.50;;;10.70;99.90;;;;;;4968367;28;20264;-46
2023/04/01 09:46:19;;;;;;;2.20;1.27;;;10.60;99.90;;;;;;4969513;28;20166;-49
2023/04/01 09:48:53;;;;;;;0.93;0.93;;;10.60;99.90;;;;;;4970006;28;20173;-48
2023/04/01 09:52:02;;;;;;;1.75;1.40;;;10.60;99.90;;;;;;4988251;28;20298;-45
2023/04/01 09:55:06;;;;;;;1.20;1.10;;;10.50;99.90;;;;;;5049770;28;20210;-45
2023/04/01 09:58:02;;;;;;;1.20;1.10;;;10.50;99.90;;;;;;5052255;28;20279;-47
2023/04/01 10:01:11;;;;;;;1.13;1.02;;;10.50;99.90;;;;;;4994382;28;20235;-45
2023/04/01 10:04:04;;;;;;;2.85;1.50;;;10.40;99.90;;;;;;4992041;28;20648;-45
2023/04/01 10:06:39;;;;;;;1.33;1.25;;;10.50;99.90;;;;;;4992023;28;20168;-46
2023/04/01 10:09:38;;;;;;;3.53;2.10;;;10.50;99.90;;;;;;4991725;28;20280;-46
2023/04/01 10:12:41;;;;;;;1.60;1.50;;;10.60;99.90;;;;;;4991692;28;20255;-45
2023/04/01 10:15:48;;;;;;;1.85;1.75;;;10.60;99.90;;;;;;4991959;28;20214;-46
2023/04/01 10:18:26;;;;;;;1.80;1.70;;;10.60;99.90;;;;;;5012743;28;20651;-46
2023/04/01 10:21:22;;;;;;;3.83;1.83;;;10.60;99.90;;;;;;4975516;28;20173;-47
2023/04/01 10:24:03;;;;;;;1.65;1.55;;;10.60;99.90;;;;;;4953024;28;20254;-47
2023/04/01 10:27:06;;;;;;;2.00;1.90;;;10.70;99.90;;;;;;4953226;28;20243;-45
2023/04/01 10:30:06;;;;;;;3.20;2.08;;;10.70;99.90;;;;;;4952985;28;20166;-48
2023/04/01 10:33:03;;;;;;;2.95;2.72;;;10.70;99.90;;;;;;4952745;28;20186;-45
2023/04/01 10:35:48;;;;;;;3.28;2.38;;;10.70;99.90;;;;;;4953181;28;20245;-46
2023/04/01 10:38:31;;;;;;;2.15;1.98;;;10.80;99.90;;;;;;4953377;28;20170;-47
2023/04/01 10:41:28;;;;;;;2.25;2.00;;;10.90;99.90;;;;;;4953080;28;20538;-48
2023/04/01 10:43:54;;;;;;;2.40;1.90;;;;;;;;;;4955239;28;20177;-45
2023/04/01 10:46:23;;;;;;;2.25;2.05;;;10.90;99.90;;;;;;4980803;28;20177;-45
2023/04/01 10:49:26;;;;;;;2.30;2.10;;;11.00;99.90;;;;;;4972265;28;20178;-46
2023/04/01 10:52:21;;;;;;;2.33;2.15;;;11.00;99.90;;;;;;4971927;28;20257;-45
2023/04/01 10:55:12;;;;;;;3.78;2.35;;;11.10;99.90;;;;;;4982008;28;20173;-45
2023/04/01 10:58:11;;;;;;;2.65;2.45;;;11.10;99.90;;;;;;4991034;28;20172;-45
2023/04/01 11:00:49;;;;;;;2.78;2.53;;;11.20;99.90;;;;;;4991205;28;20172;-45
2023/04/01 11:03:32;;;;;;;2.60;2.40;;;11.20;99.90;;;;;;4991886;28;20165;-46
2023/04/01 11:06:18;;;;;;;2.50;1.90;;;11.20;99.90;;;;;;4966909;28;20178;-45
2023/04/01 11:08:52;;;;;;;1.80;1.70;;;11.30;99.90;;;;;;4971636;28;20583;-46
2023/04/01 11:11:46;;;;;;;1.95;1.70;;;11.30;99.90;;;;;;4971354;28;20204;-45
2023/04/01 11:14:59;;;;;;;2.90;1.92;;;11.30;99.90;;;;;;4972358;28;20173;-45
2023/04/01 11:17:52;;;;;;;2.40;2.20;;;11.40;99.90;;;;;;4971456;28;20181;-45
2023/04/01 11:20:42;;;;;;;2.40;1.70;;;11.40;99.90;;;;;;4971707;28;20170;-45
2023/04/01 11:23:23;;;;;;;2.05;1.85;;;11.60;99.90;;;;;;4971231;28;20690;-45
2023/04/01 11:26:09;;;;;;;2.17;1.98;;;11.70;99.90;;;;;;4971776;28;20197;-45
2023/04/01 11:28:35;;;;;;;2.28;1.60;;;;;;;;;;4971751;28;20189;-49
2023/04/01 11:31:22;;;;;;;1.90;1.80;;;11.60;99.90;;;;;;4970107;28;20681;-44
2023/04/01 11:34:07;;;;;;;2.22;2.03;;;11.50;99.90;;;;;;4973145;28;20169;-44
2023/04/01 11:36:59;;;;;;;2.10;1.90;;;11.40;99.90;;;;;;4990426;28;20184;-44
2023/04/01 11:39:57;;;;;;;3.45;2.78;;;11.50;99.90;;;;;;4990679;28;20632;-47
2023/04/01 11:42:35;;;;;;;2.10;1.92;;;11.50;99.90;;;;;;4990333;28;20187;-44
2023/04/01 11:45:13;;;;;;;3.97;2.92;;;11.50;99.90;;;;;;4990390;28;20184;-45
2023/04/01 11:47:44;;;;;;;2.42;2.22;;;11.60;99.90;;;;;;4989347;28;20173;-46
2023/04/01 11:50:22;;;;;;;2.00;1.90;;;11.80;99.90;;;;;;4990442;28;20733;-45
2023/04/01 11:53:02;;;;;;;3.22;1.70;;;11.80;99.90;;;;;;4989781;28;20275;-44
2023/04/01 11:55:33;;;;;;;1.98;1.77;;;11.90;99.90;;;;;;5035026;28;20179;-46
2023/04/01 11:58:05;;;;;;;1.77;1.67;;;11.80;99.90;;;;;;4973059;28;20181;-46
2023/04/01 12:00:55;;;;;;;2.17;1.70;;;11.70;99.90;;;;;;4989980;28;20648;-44
2023/04/01 12:03:57;;;;;;;1.48;1.38;;;11.70;99.90;;;;;;4990238;28;20169;-45
2023/04/01 12:06:53;;;;;;;1.50;1.40;;;11.80;99.90;;;;;;4990097;28;20213;-47
2023/04/01 12:09:37;;;;;;;1.40;1.30;;;11.90;99.90;;;;;;4989683;28;20573;-46
2023/04/01 12:12:17;;;;;;;1.65;1.55;;;11.70;99.90;;;;;;4989832;28;20279;-47
2023/04/01 12:15:13;;;;;;;1.70;1.60;;;11.90;99.90;;;;;;4990144;28;20164;-49
2023/04/01 12:18:14;;;;;;;1.50;1.40;;;12.00;99.90;;;;;;4989847;28;20209;-52
2023/04/01 12:21:05;;;;;;;1.90;1.80;;;12.10;99.90;;;;;;4989969;28;20508;-47
2023/04/01 12:24:18;;;;;;;1.48;1.38;;;12.10;99.90;;;;;;4989977;28;20164;-46
2023/04/01 12:27:10;;;;;;;1.85;1.75;;;12.10;99.90;;;;;;5050052;28;20644;-46
2023/04/01 12:30:07;;;;;;;1.70;1.60;;;11.90;99.90;;;;;;4974514;28;20181;-45
2023/04/01 12:33:05;;;;;;;2.08;1.95;;;11.90;99.90;;;;;;4951148;28;20186;-49
2023/04/01 12:35:58;;;;;;;1.85;1.75;;;12.00;99.90;;;;;;4951177;28;20170;-49
2023/04/01 12:38:33;;;;;;;1.85;1.52;;;12.00;99.90;;;;;;4986751;28;20278;-51
2023/04/01 12:41:14;;;;;;;2.05;1.95;;;11.90;99.90;;;;;;4951096;28;20178;-52
2023/04/01 12:44:06;;;;;;;1.60;1.50;;;12.00;99.90;;;;;;4951047;28;20756;-45
2023/04/01 12:46:56;;;;;;;1.60;1.50;;;11.90;99.90;;;;;;4951355;28;20543;-47
2023/04/01 12:49:55;;;;;;;1.50;1.40;;;12.10;99.90;;;;;;4950937;28;20177;-47
2023/04/01 12:52:48;;;;;;;1.70;1.60;;;12.20;99.90;;;;;;4981427;28;20201;-50
2023/04/01 12:55:39;;;;;;;1.42;1.33;;;12.20;99.90;;;;;;4950991;28;20253;-45
2023/04/01 12:58:22;;;;;;;1.60;1.50;;;12.40;99.90;;;;;;4956765;28;20227;-49
2023/04/01 13:01:09;;;;;;;1.90;1.67;;;12.60;99.90;;;;;;4989315;28;20176;-44
2023/04/01 13:04:06;;;;;;;1.65;1.55;;;12.60;99.90;;;;;;4988223;28;20644;-52
2023/04/01 13:07:08;;;;;;;1.50;1.40;;;12.40;99.90;;;;;;4988729;28;20186;-50
2023/04/01 13:09:52;;;;;;;1.73;1.50;;;12.20;99.90;;;;;;4976851;28;20184;-50
2023/04/01 13:12:18;;;;;;;2.25;2.05;;;;;;;;;;4969551;28;20668;-48
2023/04/01 13:15:04;;;;;;;2.00;1.90;;;8.70;99.90;;;;;;4974073;28;20169;-45
2023/04/01 13:17:50;;;;;;;1.75;1.52;;;11.90;99.90;;;;;;4984885;28;20586;-52
2023/04/01 13:20:26;;;;;;;2.00;1.90;;;11.90;99.90;;;;;;4981989;28;20176;-47
2023/04/01 13:23:31;;;;;;;1.95;1.85;;;11.80;99.90;;;;;;4982914;28;20176;-44
2023/04/01 13:26:07;;;;;;;1.80;1.70;;;11.70;99.90;;;;;;4969192;28;20173;-46
2023/04/01 13:28:40;;;;;;;1.90;1.80;;;11.60;99.90;;;;;;4972618;28;20263;-47
2023/04/01 13:31:25;;;;;;;2.40;2.20;;;11.60;99.90;;;;;;4988838;28;20213;-46
2023/04/01 13:34:20;;;;;;;2.13;1.92;;;11.60;99.90;;;;;;4989052;28;20587;-46
2023/04/01 13:37:10;;;;;;;2.20;1.77;;;11.50;99.90;;;;;;4988434;28;20518;-49
2023/04/01 13:40:13;;;;;;;2.58;2.38;;;11.40;99.90;;;;;;4976685;28;20533;-46
2023/04/01 13:42:47;;;;;;;2.30;2.10;;;11.40;99.90;;;;;;4949806;28;20170;-49
2023/04/01 13:45:32;;;;;;;3.58;2.78;;;11.40;99.90;;;;;;4949030;28;20627;-50
2023/04/01 13:48:13;;;;;;;3.22;2.67;;;11.30;99.90;;;;;;4975057;28;20539;-45
2023/04/01 13:50:39;;;;;;;1.65;1.55;;;;;;;;;;4968753;28;20201;-46
2023/04/01 13:53:26;;;;;;;3.03;2.05;;;11.30;99.90;;;;;;4968606;28;20212;-44
2023/04/01 13:56:09;;;;;;;3.65;1.55;;;11.30;99.90;;;;;;4981102;28;20540;-46